createdAt,value
2018-02-05T12:04:51.274Z,79.25
2018-02-05T12:05:51.193Z,78.39
2018-02-05T12:06:51.183Z,79.15
2018-02-05T12:07:51.144Z,79.25
2018-02-05T12:08:51.122Z,79.72
2018-02-05T12:09:51.107Z,79.63
2018-02-05T12:10:51.089Z,79.53
2018-02-05T12:11:51.061Z,79.82
2018-02-05T12:12:51.044Z,79.91
2018-02-05T12:13:51.013Z,79.53
2018-02-05T12:14:50.992Z,79.53
2018-02-05T12:15:50.977Z,78.87
2018-02-05T12:16:50.955Z,78.39
2018-02-05T12:17:50.951Z,77.83
2018-02-05T12:18:50.917Z,78.49
2018-02-05T12:19:50.915Z,78.30
2018-02-05T12:20:50.930Z,78.49
2018-02-05T12:21:50.861Z,77.45
2018-02-05T12:22:50.872Z,77.16
2018-02-05T12:23:50.809Z,76.97
2018-02-05T12:24:50.787Z,77.06
2018-02-05T12:25:50.775Z,77.45
2018-02-05T12:26:50.735Z,77.83
2018-02-05T12:27:50.732Z,77.73
2018-02-05T12:28:50.716Z,78.11
2018-02-05T12:29:50.680Z,78.11
2018-02-05T12:30:50.668Z,77.45
2018-02-05T12:31:50.703Z,77.06
2018-02-05T12:32:50.630Z,77.45
2018-02-05T12:33:50.586Z,77.73
2018-02-05T12:34:50.579Z,77.54
2018-02-05T12:35:50.543Z,77.45
2018-02-05T12:36:50.535Z,77.35
2018-02-05T12:37:50.512Z,77.35
2018-02-05T12:38:50.473Z,77.35
2018-02-05T12:39:50.469Z,77.35
2018-02-05T12:40:50.438Z,77.06
2018-02-05T12:41:50.428Z,76.87
2018-02-05T12:42:50.388Z,77.06
2018-02-05T12:43:50.376Z,77.06
2018-02-05T12:44:50.386Z,76.68
2018-02-05T12:45:50.382Z,76.68
2018-02-05T12:46:50.349Z,76.31
2018-02-05T12:47:50.297Z,76.12
2018-02-05T12:48:50.259Z,76.03
2018-02-05T12:49:50.261Z,76.59
2018-02-05T12:50:50.292Z,76.50
2018-02-05T12:51:50.224Z,76.87
2018-02-05T12:52:50.197Z,77.25
2018-02-05T12:53:50.153Z,76.97
2018-02-05T12:54:50.134Z,76.97
2018-02-05T12:55:50.150Z,76.40
2018-02-05T12:56:50.090Z,76.97
2018-02-05T12:57:50.071Z,76.78
2018-02-05T12:58:50.059Z,76.59
2018-02-05T12:59:50.040Z,76.21
2018-02-05T13:00:50.018Z,77.16
2018-02-05T13:01:50.002Z,77.16
2018-02-05T13:02:50.025Z,77.25
2018-02-05T13:03:49.954Z,77.06
2018-02-05T13:04:49.923Z,77.92
2018-02-05T13:05:49.902Z,77.45
2018-02-05T13:06:49.873Z,77.83
2018-02-05T13:07:49.876Z,78.02
2018-02-05T13:08:49.842Z,76.97
2018-02-05T13:09:49.825Z,77.06
2018-02-05T13:10:49.815Z,77.06
2018-02-05T13:11:49.867Z,76.97
2018-02-05T13:12:49.745Z,77.73
2018-02-05T13:13:49.735Z,77.25
2018-02-05T13:14:49.713Z,76.97
2018-02-05T13:15:49.695Z,77.06
2018-02-05T13:16:49.667Z,77.25
2018-02-05T13:17:49.661Z,77.54
2018-02-05T13:18:49.648Z,77.45
2018-02-05T13:19:49.603Z,77.64
2018-02-05T13:20:49.574Z,77.73
2018-02-05T13:21:49.553Z,78.49
2018-02-05T13:22:49.547Z,78.11
2018-02-05T13:23:49.532Z,77.73
2018-02-05T13:24:49.478Z,77.16
2018-02-05T13:25:49.469Z,77.54
2018-02-05T13:26:49.436Z,78.02
2018-02-05T13:27:49.422Z,77.83
2018-02-05T13:28:49.451Z,78.02
2018-02-05T13:29:49.422Z,77.25
2018-02-05T13:30:49.381Z,77.16
2018-02-05T13:31:49.349Z,77.16
2018-02-05T13:32:49.333Z,77.06
2018-02-05T13:33:49.311Z,77.16
2018-02-05T13:34:49.272Z,76.97
2018-02-05T13:35:49.272Z,77.54
2018-02-05T13:36:49.235Z,77.92
2018-02-05T13:37:49.218Z,78.02
2018-02-05T13:38:49.190Z,78.67
2018-02-05T13:39:49.161Z,78.11
2018-02-05T13:40:49.151Z,78.11
2018-02-05T13:41:49.118Z,77.83
2018-02-05T13:42:49.135Z,77.73
2018-02-05T13:43:49.105Z,78.49
2018-02-05T13:44:49.139Z,77.06
2018-02-05T13:45:49.063Z,76.87
2018-02-05T13:46:49.008Z,77.73
2018-02-05T13:47:48.994Z,77.64
2018-02-05T13:48:48.985Z,77.45
2018-02-05T13:49:48.967Z,77.16
2018-02-05T13:50:48.935Z,77.83
2018-02-05T13:51:48.895Z,77.92
2018-02-05T13:52:48.905Z,77.83
2018-02-05T13:53:48.874Z,78.20
2018-02-05T13:54:48.838Z,78.02
2018-02-05T13:55:48.816Z,77.73
2018-02-05T13:56:48.796Z,77.64
2018-02-05T13:57:48.772Z,77.64
2018-02-05T13:58:48.757Z,77.06
2018-02-05T13:59:48.777Z,77.25
2018-02-05T14:00:48.734Z,76.40
2018-02-05T14:01:48.697Z,76.21
2018-02-05T14:02:48.658Z,76.31
2018-02-05T14:03:48.651Z,75.84
2018-02-05T14:04:48.635Z,76.03
2018-02-05T14:05:48.609Z,75.07
2018-02-05T14:06:48.582Z,74.69
2018-02-05T14:07:48.557Z,74.51
2018-02-05T14:08:48.536Z,74.79
2018-02-05T14:09:48.583Z,74.79
2018-02-05T14:10:48.500Z,75.55
2018-02-05T14:11:48.500Z,74.88
2018-02-05T14:12:48.462Z,74.32
2018-02-05T14:13:48.426Z,74.41
2018-02-05T14:14:48.412Z,74.88
2018-02-05T14:15:48.410Z,74.69
2018-02-05T14:16:48.362Z,74.88
2018-02-05T14:17:48.330Z,75.17
2018-02-05T14:18:48.313Z,74.79
2018-02-05T14:19:48.297Z,74.79
2018-02-05T14:20:48.281Z,74.32
2018-02-05T14:21:48.276Z,75.45
2018-02-05T14:22:48.296Z,75.93
2018-02-05T14:23:48.213Z,75.36
2018-02-05T14:24:48.241Z,75.26
2018-02-05T14:25:48.181Z,75.74
2018-02-05T14:26:48.148Z,75.64
2018-02-05T14:27:48.121Z,75.55
2018-02-05T14:28:48.156Z,75.45
2018-02-05T14:29:48.068Z,75.45
2018-02-05T14:30:48.068Z,76.08
2018-02-05T14:31:48.034Z,75.45
2018-02-05T14:32:48.024Z,75.36
2018-02-05T14:33:48.056Z,75.45
2018-02-05T14:34:48.049Z,75.55
2018-02-05T14:35:47.994Z,75.84
2018-02-05T14:36:47.952Z,75.45
2018-02-05T14:37:47.918Z,75.74
2018-02-05T14:38:47.903Z,75.74
2018-02-05T14:39:48.022Z,74.69
2018-02-05T14:40:47.843Z,75.26
2018-02-05T14:41:47.857Z,74.60
2018-02-05T14:42:47.819Z,74.56
2018-02-05T14:43:47.765Z,74.66
2018-02-05T14:44:47.744Z,74.66
2018-02-05T14:45:47.740Z,75.32
2018-02-05T14:46:47.713Z,75.98
2018-02-05T14:47:47.741Z,75.42
2018-02-05T14:48:47.668Z,75.42
2018-02-05T14:49:47.677Z,74.95
2018-02-05T14:50:47.660Z,73.99
2018-02-05T14:51:47.596Z,74.75
2018-02-05T14:52:47.577Z,74.09
2018-02-05T14:53:47.556Z,74.28
2018-02-05T14:54:47.555Z,73.90
2018-02-05T14:55:47.523Z,74.09
2018-02-05T14:56:47.486Z,73.71
2018-02-05T14:57:47.462Z,74.37
2018-02-05T14:58:47.451Z,74.95
2018-02-05T14:59:47.417Z,74.95
2018-02-05T15:00:47.392Z,74.85
2018-02-05T15:01:47.395Z,74.75
2018-02-05T15:02:47.352Z,74.85
2018-02-05T15:03:47.335Z,74.18
2018-02-05T15:04:47.309Z,73.99
2018-02-05T15:05:47.286Z,73.80
2018-02-05T15:06:47.262Z,74.09
2018-02-05T15:07:47.241Z,73.99
2018-02-05T15:08:47.224Z,73.80
2018-02-05T15:09:47.204Z,74.56
2018-02-05T15:10:47.177Z,74.18
2018-02-05T15:11:47.169Z,73.99
2018-02-05T15:12:47.184Z,74.18
2018-02-05T15:13:47.127Z,73.99
2018-02-05T15:14:47.134Z,74.56
2018-02-05T15:15:47.076Z,74.18
2018-02-05T15:16:47.130Z,74.09
2018-02-05T15:17:47.035Z,74.09
2018-02-05T15:18:47.078Z,74.09
2018-02-05T15:19:46.999Z,73.71
2018-02-05T15:20:47.008Z,73.80
2018-02-05T15:21:46.965Z,74.09
2018-02-05T15:22:46.921Z,74.18
2018-02-05T15:23:46.918Z,73.65
2018-02-05T15:24:46.906Z,73.61
2018-02-05T15:25:46.857Z,73.90
2018-02-05T15:26:46.825Z,73.99
2018-02-05T15:27:46.808Z,73.90
2018-02-05T15:28:46.784Z,74.37
2018-02-05T15:29:46.796Z,74.28
2018-02-05T15:30:46.804Z,74.85
2018-02-05T15:31:46.735Z,74.56
2018-02-05T15:32:46.695Z,74.28
2018-02-05T15:33:46.675Z,74.28
2018-02-05T15:34:46.651Z,74.51
2018-02-05T15:35:46.628Z,74.85
2018-02-05T15:36:46.619Z,74.66
2018-02-05T15:37:46.603Z,75.60
2018-02-05T15:38:46.587Z,75.70
2018-02-05T15:39:46.533Z,75.51
2018-02-05T15:40:46.524Z,74.75
2018-02-05T15:41:47.107Z,75.32
2018-02-05T15:42:46.593Z,74.47
2018-02-05T15:43:46.710Z,75.51
2018-02-05T15:44:46.449Z,74.85
2018-02-05T15:45:46.425Z,74.28
2018-02-05T15:46:46.409Z,74.28
2018-02-05T15:47:46.465Z,73.61
2018-02-05T15:48:46.341Z,74.09
2018-02-05T15:49:46.324Z,73.71
2018-02-05T15:50:46.299Z,73.71
2018-02-05T15:51:46.282Z,74.18
2018-02-05T15:52:46.253Z,73.71
2018-02-05T15:53:46.243Z,74.18
2018-02-05T15:54:46.220Z,73.80
2018-02-05T15:55:46.189Z,73.71
2018-02-05T15:56:46.189Z,73.80
2018-02-05T15:57:46.168Z,74.66
2018-02-05T15:58:46.135Z,75.04
2018-02-05T15:59:46.123Z,74.75
2018-02-05T16:00:46.086Z,74.75
2018-02-05T16:01:46.052Z,74.66
2018-02-05T16:02:46.038Z,75.32
2018-02-05T16:03:46.022Z,76.27
2018-02-05T16:04:45.990Z,77.03
2018-02-05T16:05:45.967Z,76.46
2018-02-05T16:06:45.937Z,76.74
2018-02-05T16:07:45.920Z,76.84
2018-02-05T16:08:45.913Z,77.40
2018-02-05T16:09:45.875Z,76.93
2018-02-05T16:10:45.897Z,77.40
2018-02-05T16:11:45.830Z,77.59
2018-02-05T16:12:45.818Z,77.59
2018-02-05T16:13:45.783Z,77.78
2018-02-05T16:14:45.767Z,77.31
2018-02-05T16:15:45.759Z,77.40
2018-02-05T16:16:45.712Z,78.16
2018-02-05T16:17:45.687Z,77.69
2018-02-05T16:18:45.686Z,78.16
2018-02-05T16:19:45.662Z,77.69
2018-02-05T16:20:45.629Z,77.88
2018-02-05T16:21:45.603Z,77.78
2018-02-05T16:22:45.597Z,77.78
2018-02-05T16:23:45.555Z,77.69
2018-02-05T16:24:45.549Z,77.97
2018-02-05T16:25:45.546Z,78.35
2018-02-05T16:26:45.500Z,78.26
2018-02-05T16:27:45.473Z,78.54
2018-02-05T16:28:45.446Z,78.16
2018-02-05T16:29:45.438Z,78.45
2018-02-05T16:30:45.409Z,78.45
2018-02-05T16:31:45.388Z,78.54
2018-02-05T16:32:45.385Z,78.73
2018-02-05T16:33:45.329Z,78.73
2018-02-05T16:34:45.314Z,78.98
2018-02-05T16:35:45.403Z,78.69
2018-02-05T16:36:45.268Z,78.79
2018-02-05T16:37:45.264Z,78.79
2018-02-05T16:38:45.217Z,78.98
2018-02-05T16:39:45.199Z,78.98
2018-02-05T16:40:45.179Z,78.79
2018-02-05T16:41:45.157Z,78.79
2018-02-05T16:42:45.135Z,79.17
2018-02-05T16:43:45.114Z,79.07
2018-02-05T16:44:45.086Z,78.88
2018-02-05T16:45:45.077Z,79.64
2018-02-05T16:46:45.042Z,79.55
2018-02-05T16:47:45.026Z,79.26
2018-02-05T16:48:45.001Z,79.55
2018-02-05T16:49:44.978Z,79.26
2018-02-05T16:50:44.965Z,79.45
2018-02-05T16:51:44.938Z,79.17
2018-02-05T16:52:44.904Z,79.45
2018-02-05T16:53:44.912Z,79.45
2018-02-05T16:54:44.874Z,79.36
2018-02-05T16:55:44.852Z,79.26
2018-02-05T16:56:44.844Z,79.83
2018-02-05T16:57:44.795Z,80.11
2018-02-05T16:58:44.799Z,80.02
2018-02-05T16:59:44.745Z,79.74
2018-02-05T17:00:44.782Z,80.02
2018-02-05T17:01:44.711Z,79.55
2018-02-05T17:02:44.693Z,79.74
2018-02-05T17:03:44.662Z,80.11
2018-02-05T17:04:44.717Z,79.55
2018-02-05T17:05:44.618Z,80.11
2018-02-05T17:06:44.596Z,80.21
2018-02-05T17:07:44.556Z,79.98
2018-02-05T17:08:44.544Z,80.93
2018-02-05T17:09:44.526Z,81.49
2018-02-05T17:10:44.498Z,81.40
2018-02-05T17:11:44.483Z,81.63
2018-02-05T17:12:44.448Z,81.63
2018-02-05T17:13:44.436Z,81.44
2018-02-05T17:14:44.418Z,81.12
2018-02-05T17:15:44.469Z,81.49
2018-02-05T17:16:44.355Z,81.30
2018-02-05T17:17:44.340Z,81.40
2018-02-05T17:18:44.317Z,81.59
2018-02-05T17:19:44.292Z,81.02
2018-02-05T17:20:44.275Z,81.12
2018-02-05T17:21:44.244Z,81.30
2018-02-05T17:22:44.227Z,81.68
2018-02-05T17:23:44.211Z,81.68
2018-02-05T17:24:44.182Z,81.68
2018-02-05T17:25:44.162Z,81.68
2018-02-05T17:26:44.123Z,81.87
2018-02-05T17:27:44.103Z,81.87
2018-02-05T17:28:44.082Z,82.15
2018-02-05T17:29:44.063Z,82.15
2018-02-05T17:30:44.046Z,82.34
2018-02-05T17:31:44.019Z,82.15
2018-02-05T17:32:43.994Z,82.72
2018-02-05T17:33:43.967Z,82.82
2018-02-05T17:34:43.955Z,83.01
2018-02-05T17:35:43.916Z,82.82
2018-02-05T17:36:43.896Z,82.82
2018-02-05T17:37:43.880Z,83.58
2018-02-05T17:38:43.861Z,83.76
2018-02-05T17:39:43.860Z,83.39
2018-02-05T17:40:43.807Z,83.20
2018-02-05T17:41:43.780Z,83.48
2018-02-05T17:42:43.762Z,83.39
2018-02-05T17:43:43.730Z,83.48
2018-02-05T17:44:43.756Z,83.58
2018-02-05T17:45:43.710Z,83.67
2018-02-05T17:46:43.668Z,83.67
2018-02-05T17:47:43.675Z,83.58
2018-02-05T17:48:43.614Z,83.67
2018-02-05T17:49:43.605Z,83.58
2018-02-05T17:50:43.572Z,83.86
2018-02-05T17:51:43.540Z,83.29
2018-02-05T17:52:43.547Z,83.58
2018-02-05T17:53:43.535Z,83.58
2018-02-05T17:54:43.482Z,83.76
2018-02-05T17:55:43.465Z,83.58
2018-02-05T17:56:43.466Z,83.67
2018-02-05T17:57:43.412Z,83.67
2018-02-05T17:58:43.424Z,83.76
2018-02-05T17:59:43.376Z,83.67
2018-02-05T18:00:43.369Z,83.67
2018-02-05T18:01:43.336Z,83.95
2018-02-05T18:02:43.301Z,83.29
2018-02-05T18:03:43.274Z,82.91
2018-02-05T18:04:43.242Z,82.82
2018-02-05T18:05:43.222Z,83.20
2018-02-05T18:06:43.200Z,82.72
2018-02-05T18:07:43.181Z,82.91
2018-02-05T18:08:43.152Z,83.20
2018-02-05T18:09:43.144Z,82.91
2018-02-05T18:10:43.109Z,82.82
2018-02-05T18:11:43.088Z,83.01
2018-02-05T18:12:43.065Z,83.39
2018-02-05T18:13:43.053Z,83.20
2018-02-05T18:14:43.030Z,83.67
2018-02-05T18:15:42.990Z,83.10
2018-02-05T18:16:42.970Z,82.91
2018-02-05T18:17:42.949Z,82.82
2018-02-05T18:18:42.917Z,83.29
2018-02-05T18:19:42.900Z,83.67
2018-02-05T18:20:42.873Z,84.14
2018-02-05T18:21:42.840Z,84.05
2018-02-05T18:22:42.829Z,84.42
2018-02-05T18:23:42.802Z,84.05
2018-02-05T18:24:42.784Z,84.33
2018-02-05T18:25:42.761Z,84.33
2018-02-05T18:26:42.728Z,84.52
2018-02-05T18:27:42.725Z,84.52
2018-02-05T18:28:42.681Z,84.42
2018-02-05T18:29:42.676Z,84.42
2018-02-05T18:30:42.661Z,84.71
2018-02-05T18:31:42.635Z,84.61
2018-02-05T18:32:42.632Z,85.09
2018-02-05T18:33:42.570Z,84.61
2018-02-05T18:34:42.541Z,85.24
2018-02-05T18:35:42.511Z,85.42
2018-02-05T18:36:42.536Z,85.33
2018-02-05T18:37:42.486Z,85.24
2018-02-05T18:38:42.453Z,85.42
2018-02-05T18:39:42.495Z,85.52
2018-02-05T18:40:42.420Z,85.33
2018-02-05T18:41:42.400Z,85.33
2018-02-05T18:42:42.411Z,85.52
2018-02-05T18:43:42.349Z,85.24
2018-02-05T18:44:42.333Z,85.52
2018-02-05T18:45:42.320Z,85.61
2018-02-05T18:46:42.262Z,85.42
2018-02-05T18:47:42.233Z,85.42
2018-02-05T18:48:42.209Z,85.42
2018-02-05T18:49:42.202Z,85.33
2018-02-05T18:50:42.180Z,85.75
2018-02-05T18:51:42.145Z,85.52
2018-02-05T18:52:42.125Z,85.47
2018-02-05T18:53:42.110Z,85.42
2018-02-05T18:54:42.070Z,85.80
2018-02-05T18:55:42.052Z,85.24
2018-02-05T18:56:42.076Z,85.42
2018-02-05T18:57:41.996Z,85.42
2018-02-05T18:58:41.999Z,85.42
2018-02-05T18:59:41.955Z,85.52
2018-02-05T19:00:41.931Z,85.52
2018-02-05T19:01:41.902Z,85.52
2018-02-05T19:02:41.881Z,85.52
2018-02-05T19:03:41.858Z,85.24
2018-02-05T19:04:41.875Z,84.95
2018-02-05T19:05:41.810Z,84.77
2018-02-05T19:06:41.807Z,84.86
2018-02-05T19:07:41.843Z,84.95
2018-02-05T19:08:41.742Z,84.95
2018-02-05T19:09:41.715Z,84.95
2018-02-05T19:10:41.692Z,85.05
2018-02-05T19:11:41.696Z,84.77
2018-02-05T19:12:41.681Z,84.95
2018-02-05T19:13:41.642Z,84.77
2018-02-05T19:14:41.626Z,84.95
2018-02-05T19:15:41.576Z,84.29
2018-02-05T19:16:41.549Z,84.86
2018-02-05T19:17:41.539Z,84.86
2018-02-05T19:18:41.509Z,84.95
2018-02-05T19:19:41.487Z,85.05
2018-02-05T19:20:41.463Z,84.90
2018-02-05T19:21:41.438Z,85.00
2018-02-05T19:22:41.403Z,84.48
2018-02-05T19:23:41.394Z,84.77
2018-02-05T19:24:41.358Z,84.42
2018-02-05T19:25:41.342Z,85.24
2018-02-05T19:26:41.318Z,84.61
2018-02-05T19:27:41.298Z,84.23
2018-02-05T19:28:41.276Z,84.29
2018-02-05T19:29:41.245Z,84.39
2018-02-05T19:30:41.242Z,84.39
2018-02-05T19:31:41.208Z,84.29
2018-02-05T19:32:41.202Z,84.48
2018-02-05T19:33:41.166Z,84.39
2018-02-05T19:34:41.167Z,84.39
2018-02-05T19:35:41.109Z,84.67
2018-02-05T19:36:41.080Z,84.95
2018-02-05T19:37:41.070Z,85.42
2018-02-05T19:38:41.033Z,85.14
2018-02-05T19:39:41.019Z,84.95
2018-02-05T19:40:40.984Z,84.77
2018-02-05T19:41:40.955Z,84.67
2018-02-05T19:42:40.940Z,84.77
2018-02-05T19:43:40.913Z,84.67
2018-02-05T19:44:40.944Z,84.67
2018-02-05T19:45:40.880Z,84.86
2018-02-05T19:46:40.841Z,85.14
2018-02-05T19:47:40.831Z,84.95
2018-02-05T19:48:40.791Z,85.24
2018-02-05T19:49:40.771Z,85.42
2018-02-05T19:50:40.831Z,85.24
2018-02-05T19:51:40.728Z,85.61
2018-02-05T19:52:40.695Z,85.61
2018-02-05T19:53:40.676Z,85.71
2018-02-05T19:54:40.647Z,85.42
2018-02-05T19:55:40.625Z,85.14
2018-02-05T19:56:40.600Z,85.42
2018-02-05T19:57:40.585Z,85.33
2018-02-05T19:58:40.561Z,85.42
2018-02-05T19:59:40.537Z,85.71
2018-02-05T20:00:40.503Z,86.18
2018-02-05T20:01:40.483Z,86.28
2018-02-05T20:02:40.469Z,86.37
2018-02-05T20:03:40.433Z,85.90
2018-02-05T20:04:40.412Z,85.90
2018-02-05T20:05:40.409Z,86.28
2018-02-05T20:06:40.380Z,85.99
2018-02-05T20:07:40.343Z,85.99
2018-02-05T20:08:40.316Z,86.56
2018-02-05T20:09:40.297Z,86.28
2018-02-05T20:10:40.266Z,86.37
2018-02-05T20:11:40.242Z,86.28
2018-02-05T20:12:40.223Z,86.47
2018-02-05T20:13:40.226Z,86.66
2018-02-05T20:14:40.172Z,85.90
2018-02-05T20:15:40.151Z,85.99
2018-02-05T20:16:40.126Z,85.99
2018-02-05T20:17:40.200Z,85.99
2018-02-05T20:18:40.078Z,86.56
2018-02-05T20:19:40.055Z,86.37
2018-02-05T20:20:40.031Z,86.09
2018-02-05T20:21:40.002Z,86.66
2018-02-05T20:22:40.006Z,86.66
2018-02-05T20:23:39.960Z,86.47
2018-02-05T20:24:39.932Z,86.37
2018-02-05T20:25:39.909Z,86.47
2018-02-05T20:26:39.884Z,87.13
2018-02-05T20:27:39.891Z,86.28
2018-02-05T20:28:39.844Z,86.94
2018-02-05T20:29:39.810Z,87.13
2018-02-05T20:30:39.783Z,87.04
2018-02-05T20:31:39.760Z,87.23
2018-02-05T20:32:39.735Z,87.13
2018-02-05T20:33:39.711Z,85.99
2018-02-05T20:34:39.692Z,86.28
2018-02-05T20:35:39.669Z,87.13
2018-02-05T20:36:39.683Z,86.37
2018-02-05T20:37:39.621Z,86.56
2018-02-05T20:38:39.620Z,86.47
2018-02-05T20:39:39.590Z,87.04
2018-02-05T20:40:39.565Z,87.32
2018-02-05T20:41:39.527Z,86.99
2018-02-05T20:42:39.620Z,87.32
2018-02-05T20:43:39.556Z,87.04
2018-02-05T20:44:39.592Z,86.80
2018-02-05T20:45:39.451Z,86.75
2018-02-05T20:46:39.407Z,86.99
2018-02-05T20:47:39.389Z,86.80
2018-02-05T20:48:39.353Z,86.80
2018-02-05T20:49:39.328Z,86.71
2018-02-05T20:50:39.312Z,86.90
2018-02-05T20:51:39.274Z,87.23
2018-02-05T20:52:39.249Z,86.71
2018-02-05T20:53:39.227Z,87.18
2018-02-05T20:54:39.204Z,86.80
2018-02-05T20:55:39.178Z,87.46
2018-02-05T20:56:39.157Z,87.46
2018-02-05T20:57:39.133Z,87.46
2018-02-05T20:58:39.112Z,87.74
2018-02-05T20:59:39.084Z,87.65
2018-02-05T21:00:39.056Z,87.18
2018-02-05T21:01:39.036Z,87.55
2018-02-05T21:02:39.015Z,87.84
2018-02-05T21:03:38.983Z,87.55
2018-02-05T21:04:38.960Z,87.18
2018-02-05T21:05:38.942Z,87.37
2018-02-05T21:06:38.911Z,87.37
2018-02-05T21:07:38.903Z,87.37
2018-02-05T21:08:38.865Z,87.46
2018-02-05T21:09:38.834Z,87.08
2018-02-05T21:10:38.813Z,86.99
2018-02-05T21:11:38.790Z,86.61
2018-02-05T21:12:38.771Z,86.99
2018-02-05T21:13:38.737Z,86.99
2018-02-05T21:14:38.736Z,86.71
2018-02-05T21:15:38.708Z,87.55
2018-02-05T21:16:38.668Z,86.80
2018-02-05T21:17:38.644Z,86.71
2018-02-05T21:18:38.620Z,86.99
2018-02-05T21:19:38.597Z,86.80
2018-02-05T21:20:38.574Z,86.90
2018-02-05T21:21:38.547Z,87.08
2018-02-05T21:22:38.521Z,86.90
2018-02-05T21:23:38.524Z,86.71
2018-02-05T21:24:38.490Z,86.71
2018-02-05T21:25:38.448Z,86.99
2018-02-05T21:26:38.425Z,86.90
2018-02-05T21:27:38.396Z,86.99
2018-02-05T21:28:38.376Z,87.08
2018-02-05T21:29:38.348Z,87.27
2018-02-05T21:30:38.327Z,87.27
2018-02-05T21:31:38.303Z,86.99
2018-02-05T21:32:38.276Z,86.80
2018-02-05T21:33:38.274Z,86.99
2018-02-05T21:34:38.230Z,87.27
2018-02-05T21:35:38.214Z,87.18
2018-02-05T21:36:38.184Z,87.18
2018-02-05T21:37:38.152Z,86.99
2018-02-05T21:38:38.151Z,87.46
2018-02-05T21:39:38.108Z,87.46
2018-02-05T21:40:38.080Z,87.37
2018-02-05T21:41:38.073Z,87.18
2018-02-05T21:42:38.034Z,87.93
2018-02-05T21:43:38.008Z,87.65
2018-02-05T21:44:38.017Z,87.37
2018-02-05T21:45:37.959Z,87.84
2018-02-05T21:46:37.935Z,87.84
2018-02-05T21:47:37.911Z,87.65
2018-02-05T21:48:37.889Z,87.74
2018-02-05T21:49:37.936Z,88.03
2018-02-05T21:50:37.955Z,87.65
2018-02-05T21:51:37.815Z,87.65
2018-02-05T21:52:37.792Z,87.37
2018-02-05T21:53:37.788Z,87.65
2018-02-05T21:54:37.747Z,87.84
2018-02-05T21:55:37.715Z,87.84
2018-02-05T21:56:37.691Z,87.65
2018-02-05T21:57:37.690Z,88.22
2018-02-05T21:58:37.644Z,88.03
2018-02-05T21:59:37.623Z,88.12
2018-02-05T22:00:37.598Z,88.22
2018-02-05T22:01:37.577Z,87.93
2018-02-05T22:02:37.548Z,88.12
2018-02-05T22:03:37.519Z,88.69
2018-02-05T22:04:37.499Z,88.50
2018-02-05T22:05:37.476Z,88.12
2018-02-05T22:06:37.449Z,88.31
2018-02-05T22:07:37.424Z,88.98
2018-02-05T22:08:37.408Z,88.41
2018-02-05T22:09:37.376Z,88.50
2018-02-05T22:10:37.350Z,88.31
2018-02-05T22:11:37.336Z,88.31
2018-02-05T22:12:37.307Z,88.03
2018-02-05T22:13:37.275Z,88.03
2018-02-05T22:14:37.251Z,87.93
2018-02-05T22:15:37.226Z,87.93
2018-02-05T22:16:37.207Z,87.84
2018-02-05T22:17:37.182Z,87.84
2018-02-05T22:18:37.153Z,87.55
2018-02-05T22:19:37.143Z,87.74
2018-02-05T22:20:37.107Z,88.03
2018-02-05T22:21:37.090Z,87.84
2018-02-05T22:22:37.058Z,87.84
2018-02-05T22:23:37.037Z,87.37
2018-02-05T22:24:37.012Z,87.55
2018-02-05T22:25:36.985Z,87.74
2018-02-05T22:26:36.960Z,87.27
2018-02-05T22:27:36.938Z,87.84
2018-02-05T22:28:36.910Z,87.46
2018-02-05T22:29:36.885Z,87.84
2018-02-05T22:30:36.866Z,86.61
2018-02-05T22:31:36.854Z,86.80
2018-02-05T22:32:36.834Z,86.99
2018-02-05T22:33:36.788Z,86.99
2018-02-05T22:34:36.762Z,87.08
2018-02-05T22:35:36.740Z,86.90
2018-02-05T22:36:36.714Z,86.71
2018-02-05T22:37:36.688Z,86.99
2018-02-05T22:38:36.668Z,87.18
2018-02-05T22:39:36.644Z,86.42
2018-02-05T22:40:36.619Z,86.42
2018-02-05T22:41:36.591Z,86.90
2018-02-05T22:42:36.571Z,86.04
2018-02-05T22:43:36.545Z,86.42
2018-02-05T22:44:36.528Z,86.23
2018-02-05T22:45:36.494Z,86.52
2018-02-05T22:46:36.481Z,86.23
2018-02-05T22:47:36.448Z,86.14
2018-02-05T22:48:36.423Z,85.85
2018-02-05T22:49:36.443Z,86.14
2018-02-05T22:50:36.378Z,85.95
2018-02-05T22:51:36.345Z,86.33
2018-02-05T22:52:36.321Z,86.52
2018-02-05T22:53:36.296Z,85.85
2018-02-05T22:54:36.276Z,86.04
2018-02-05T22:55:36.247Z,85.47
2018-02-05T22:56:36.224Z,85.76
2018-02-05T22:57:36.198Z,85.85
2018-02-05T22:58:36.178Z,85.47
2018-02-05T22:59:36.153Z,85.47
2018-02-05T23:00:36.139Z,85.19
2018-02-05T23:01:36.100Z,85.38
2018-02-05T23:02:36.079Z,85.47
2018-02-05T23:03:36.053Z,85.38
2018-02-05T23:04:36.041Z,85.47
2018-02-05T23:05:36.011Z,85.38
2018-02-05T23:06:35.989Z,85.19
2018-02-05T23:07:35.955Z,85.28
2018-02-05T23:08:35.931Z,85.19
2018-02-05T23:09:35.902Z,85.47
2018-02-05T23:10:35.881Z,85.57
2018-02-05T23:11:35.863Z,85.28
2018-02-05T23:12:35.827Z,85.19
2018-02-05T23:13:35.804Z,85.38
2018-02-05T23:14:35.780Z,85.28
2018-02-05T23:15:35.757Z,85.28
2018-02-05T23:16:35.748Z,85.10
2018-02-05T23:17:35.710Z,85.10
2018-02-05T23:18:35.718Z,84.72
2018-02-05T23:19:35.655Z,84.91
2018-02-05T23:20:35.630Z,85.28
2018-02-05T23:21:35.609Z,85.47
2018-02-05T23:22:35.580Z,85.47
2018-02-05T23:23:35.555Z,85.28
2018-02-05T23:24:35.531Z,85.28
2018-02-05T23:25:35.514Z,84.72
2018-02-05T23:26:35.485Z,84.77
2018-02-05T23:27:35.456Z,84.49
2018-02-05T23:28:35.436Z,84.77
2018-02-05T23:29:35.410Z,85.00
2018-02-05T23:30:35.386Z,84.34
2018-02-05T23:31:35.363Z,84.39
2018-02-05T23:32:35.336Z,84.49
2018-02-05T23:33:35.307Z,84.39
2018-02-05T23:34:35.288Z,84.53
2018-02-05T23:35:35.261Z,84.44
2018-02-05T23:36:35.234Z,84.01
2018-02-05T23:37:35.213Z,84.11
2018-02-05T23:38:35.183Z,84.11
2018-02-05T23:39:35.160Z,84.39
2018-02-05T23:40:35.138Z,84.39
2018-02-05T23:41:35.112Z,84.39
2018-02-05T23:42:35.108Z,84.39
2018-02-05T23:43:35.085Z,84.39
2018-02-05T23:44:35.038Z,84.58
2018-02-05T23:45:35.012Z,84.49
2018-02-05T23:46:34.988Z,84.20
2018-02-05T23:47:34.961Z,84.01
2018-02-05T23:48:34.934Z,84.01
2018-02-05T23:49:34.913Z,84.39
2018-02-05T23:50:34.884Z,84.39
2018-02-05T23:51:34.865Z,84.20
2018-02-05T23:52:34.839Z,84.39
2018-02-05T23:53:34.809Z,84.01
2018-02-05T23:54:34.785Z,84.58
2018-02-05T23:55:34.759Z,84.20
2018-02-05T23:56:34.740Z,84.30
2018-02-05T23:57:34.709Z,84.39
2018-02-05T23:58:34.697Z,84.11
2018-02-05T23:59:34.675Z,84.39
